^^
Station Historical Data
Daily Summary for April 30, 2017 Units:  Both    English   Metric
« Previous Day
Next Day »
Daily Weekly Monthly Yearly Custom
  High: Low: Average:
Temperature: 75.6 °F /  24.2 °C 51.1 °F /  10.6 °C 62.3 °F /  16.8 °C
Dew Point: 49.3 °F /  9.6 °C 41.4 °F /  5.2 °C 45.7 °F /  7.6 °C
Humidity: 76% 37% 57%
Wind Speed: 12.1mph /  19.5km/h - 1.5mph /  2.4km/h
Wind Gust: 15.0mph /  24.1km/h - -
Wind- - ESE
Pressure: 30.13 in /  1020.2 hPa 29.98 in /  1015.1 hPa -
Precipitation: 0.00 in /  0 mm    
Historical Graphs
 
 
Tabular Data for April 30, 2017
Time Temperature Dew Point Pressure Wind Wind Speed Wind Gust Humidity Rainfall Rate (Hourly) solar Conditions
00:03 56.5 °F /  13.6 °C 45.3 °F /  7.4 °C 30.06in /  1017.8hPa Calm   1.0mph /  1.6km/h 66% 0.00in /  0mm 0.0 W/m2
00:09 56.3 °F /  13.5 °C 45.5 °F /  7.5 °C 30.06in /  1017.8hPa NE 2.0mph /  3.2km/h 3.0mph /  4.8km/h 67% 0.00in /  0mm 0.0 W/m2
00:15 56.1 °F /  13.4 °C 45.3 °F /  7.4 °C 30.06in /  1017.8hPa Calm   1.0mph /  1.6km/h 67% 0.00in /  0mm 0.0 W/m2
00:22 55.9 °F /  13.3 °C 45.1 °F /  7.3 °C 30.06in /  1017.8hPa Calm   2.0mph /  3.2km/h 67% 0.00in /  0mm 0.0 W/m2
00:28 55.9 °F /  13.3 °C 45.1 °F /  7.3 °C 30.06in /  1017.8hPa Calm     67% 0.00in /  0mm 0.0 W/m2
00:34 55.8 °F /  13.2 °C 45.0 °F /  7.2 °C 30.06in /  1017.8hPa Calm     67% 0.00in /  0mm 0.0 W/m2
00:40 55.6 °F /  13.1 °C 45.1 °F /  7.3 °C 30.06in /  1017.8hPa East 0.9mph /  1.4km/h 3.0mph /  4.8km/h 68% 0.00in /  0mm 0.0 W/m2
00:46 55.2 °F /  12.9 °C 44.8 °F /  7.1 °C 30.06in /  1017.8hPa Calm   2.0mph /  3.2km/h 68% 0.00in /  0mm 0.0 W/m2
00:52 54.9 °F /  12.7 °C 45.0 °F /  7.2 °C 30.06in /  1017.8hPa Calm     69% 0.00in /  0mm 0.0 W/m2
00:58 54.7 °F /  12.6 °C 44.8 °F /  7.1 °C 30.06in /  1017.8hPa Calm   2.0mph /  3.2km/h 69% 0.00in /  0mm 0.0 W/m2
01:05 54.3 °F /  12.4 °C 44.4 °F /  6.9 °C 30.06in /  1017.8hPa Calm   1.0mph /  1.6km/h 69% 0.00in /  0mm 0.0 W/m2
01:11 54.1 °F /  12.3 °C 44.6 °F /  7 °C 30.06in /  1017.8hPa Calm   1.0mph /  1.6km/h 70% 0.00in /  0mm 0.0 W/m2
01:17 54.1 °F /  12.3 °C 44.6 °F /  7 °C 30.06in /  1017.8hPa Calm   1.0mph /  1.6km/h 70% 0.00in /  0mm 0.0 W/m2
01:23 54.0 °F /  12.2 °C 44.4 °F /  6.9 °C 30.06in /  1017.8hPa Calm     70% 0.00in /  0mm 0.0 W/m2
01:29 54.0 °F /  12.2 °C 44.4 °F /  6.9 °C 30.06in /  1017.8hPa Calm     70% 0.00in /  0mm 0.0 W/m2
01:35 53.8 °F /  12.1 °C 44.6 °F /  7 °C 30.06in /  1017.8hPa Calm     71% 0.00in /  0mm 0.0 W/m2
01:41 53.6 °F /  12 °C 44.4 °F /  6.9 °C 30.06in /  1017.8hPa Calm     71% 0.00in /  0mm 0.0 W/m2
01:48 53.4 °F /  11.9 °C 44.2 °F /  6.8 °C 30.06in /  1017.8hPa Calm     71% 0.00in /  0mm 0.0 W/m2
01:54 53.2 °F /  11.8 °C 44.4 °F /  6.9 °C 30.06in /  1017.8hPa Calm     72% 0.00in /  0mm 0.0 W/m2
02:00 53.1 °F /  11.7 °C 44.6 °F /  7 °C 30.06in /  1017.8hPa Calm     73% 0.00in /  0mm 0.0 W/m2
02:06 52.7 °F /  11.5 °C 44.6 °F /  7 °C 30.06in /  1017.8hPa Calm     74% 0.00in /  0mm 0.0 W/m2
02:12 52.3 °F /  11.3 °C 44.2 °F /  6.8 °C 30.06in /  1017.8hPa Calm     74% 0.00in /  0mm 0.0 W/m2
02:18 52.2 °F /  11.2 °C 44.1 °F /  6.7 °C 30.06in /  1017.8hPa Calm     74% 0.00in /  0mm 0.0 W/m2
02:24 52.2 °F /  11.2 °C 44.1 °F /  6.7 °C 30.06in /  1017.8hPa Calm     74% 0.00in /  0mm 0.0 W/m2
02:30 52.0 °F /  11.1 °C 43.9 °F /  6.6 °C 30.06in /  1017.8hPa Calm   1.0mph /  1.6km/h 74% 0.00in /  0mm 0.0 W/m2
02:37 51.6 °F /  10.9 °C 43.9 °F /  6.6 °C 30.06in /  1017.8hPa Calm     75% 0.00in /  0mm 0.0 W/m2
02:43 51.4 °F /  10.8 °C 43.7 °F /  6.5 °C 30.06in /  1017.8hPa Calm     75% 0.00in /  0mm 0.0 W/m2
02:49 51.4 °F /  10.8 °C 43.7 °F /  6.5 °C 30.06in /  1017.8hPa Calm   1.0mph /  1.6km/h 75% 0.00in /  0mm 0.0 W/m2
02:55 51.3 °F /  10.7 °C 43.5 °F /  6.4 °C 30.06in /  1017.8hPa Calm     75% 0.00in /  0mm 0.0 W/m2
03:01 51.1 °F /  10.6 °C 43.7 °F /  6.5 °C 30.06in /  1017.8hPa Calm     76% 0.00in /  0mm 0.0 W/m2
03:07 51.1 °F /  10.6 °C 43.7 °F /  6.5 °C 30.06in /  1017.8hPa Calm     76% 0.00in /  0mm 0.0 W/m2
03:13 51.1 °F /  10.6 °C 43.7 °F /  6.5 °C 30.06in /  1017.8hPa Calm   1.0mph /  1.6km/h 76% 0.00in /  0mm 0.0 W/m2
03:20 51.1 °F /  10.6 °C 43.7 °F /  6.5 °C 30.06in /  1017.8hPa Calm   1.0mph /  1.6km/h 76% 0.00in /  0mm 0.0 W/m2
03:26 51.1 °F /  10.6 °C 43.5 °F /  6.4 °C 30.05in /  1017.5hPa Calm     75% 0.00in /  0mm 0.0 W/m2
03:32 51.3 °F /  10.7 °C 43.5 °F /  6.4 °C 30.06in /  1017.8hPa Calm   1.0mph /  1.6km/h 75% 0.00in /  0mm 0.0 W/m2
03:38 51.6 °F /  10.9 °C 43.5 °F /  6.4 °C 30.06in /  1017.8hPa Calm   1.0mph /  1.6km/h 74% 0.00in /  0mm 0.0 W/m2
03:44 52.0 °F /  11.1 °C 43.5 °F /  6.4 °C 30.06in /  1017.8hPa ESE 0.9mph /  1.4km/h 3.0mph /  4.8km/h 73% 0.00in /  0mm 0.0 W/m2
03:50 52.2 °F /  11.2 °C 43.7 °F /  6.5 °C 30.06in /  1017.8hPa ENE 0.9mph /  1.4km/h 2.0mph /  3.2km/h 73% 0.00in /  0mm 0.0 W/m2
03:56 52.3 °F /  11.3 °C 43.5 °F /  6.4 °C 30.06in /  1017.8hPa Calm   1.0mph /  1.6km/h 72% 0.00in /  0mm 0.0 W/m2
04:03 52.3 °F /  11.3 °C 43.5 °F /  6.4 °C 30.06in /  1017.8hPa Calm   4.0mph /  6.4km/h 72% 0.00in /  0mm 0.0 W/m2
04:09 52.3 °F /  11.3 °C 43.5 °F /  6.4 °C 30.06in /  1017.8hPa NE 0.9mph /  1.4km/h 2.0mph /  3.2km/h 72% 0.00in /  0mm 0.0 W/m2
04:15 52.3 °F /  11.3 °C 43.5 °F /  6.4 °C 30.06in /  1017.8hPa Calm   2.0mph /  3.2km/h 72% 0.00in /  0mm 0.0 W/m2
04:21 52.2 °F /  11.2 °C 43.3 °F /  6.3 °C 30.06in /  1017.8hPa Calm     72% 0.00in /  0mm 0.0 W/m2
04:27 52.2 °F /  11.2 °C 43.7 °F /  6.5 °C 30.06in /  1017.8hPa Calm   1.0mph /  1.6km/h 73% 0.00in /  0mm 0.0 W/m2
04:33 52.0 °F /  11.1 °C 43.5 °F /  6.4 °C 30.06in /  1017.8hPa NNE 0.9mph /  1.4km/h 2.0mph /  3.2km/h 73% 0.00in /  0mm 0.0 W/m2
04:39 52.0 °F /  11.1 °C 43.2 °F /  6.2 °C 30.06in /  1017.8hPa NE 0.9mph /  1.4km/h 2.0mph /  3.2km/h 72% 0.00in /  0mm 0.0 W/m2
04:46 52.0 °F /  11.1 °C 43.2 °F /  6.2 °C 30.06in /  1017.8hPa ENE 2.0mph /  3.2km/h 2.0mph /  3.2km/h 72% 0.00in /  0mm 0.0 W/m2
04:52 52.0 °F /  11.1 °C 43.2 °F /  6.2 °C 30.06in /  1017.8hPa East 0.9mph /  1.4km/h 1.0mph /  1.6km/h 72% 0.00in /  0mm 0.0 W/m2
04:58 52.0 °F /  11.1 °C 43.2 °F /  6.2 °C 30.07in /  1018.2hPa Calm   1.0mph /  1.6km/h 72% 0.00in /  0mm 0.0 W/m2
05:04 52.0 °F /  11.1 °C 43.2 °F /  6.2 °C 30.07in /  1018.2hPa East 0.9mph /  1.4km/h 3.0mph /  4.8km/h 72% 0.00in /  0mm 0.0 W/m2
05:10 51.8 °F /  11 °C 43.0 °F /  6.1 °C 30.07in /  1018.2hPa Calm   2.0mph /  3.2km/h 72% 0.00in /  0mm 0.0 W/m2
05:16 51.6 °F /  10.9 °C 43.0 °F /  6.1 °C 30.08in /  1018.5hPa Calm   4.0mph /  6.4km/h 72% 0.00in /  0mm 0.0 W/m2
05:22 51.6 °F /  10.9 °C 42.4 °F /  5.8 °C 30.08in /  1018.5hPa ESE 0.9mph /  1.4km/h 3.0mph /  4.8km/h 71% 0.00in /  0mm 0.0 W/m2
05:29 51.6 °F /  10.9 °C 42.4 °F /  5.8 °C 30.08in /  1018.5hPa Calm   2.0mph /  3.2km/h 71% 0.00in /  0mm 0.0 W/m2
05:35 51.8 °F /  11 °C 42.3 °F /  5.7 °C 30.08in /  1018.5hPa Calm   3.0mph /  4.8km/h 70% 0.00in /  0mm 0.0 W/m2
05:41 51.8 °F /  11 °C 42.3 °F /  5.7 °C 30.08in /  1018.5hPa Calm   2.0mph /  3.2km/h 70% 0.00in /  0mm 0.0 W/m2
05:47 51.8 °F /  11 °C 41.9 °F /  5.5 °C 30.08in /  1018.5hPa Calm   3.0mph /  4.8km/h 69% 0.00in /  0mm 0.0 W/m2
05:53 52.0 °F /  11.1 °C 42.1 °F /  5.6 °C 30.08in /  1018.5hPa Calm   3.0mph /  4.8km/h 69% 0.00in /  0mm 0.0 W/m2
05:59 52.2 °F /  11.2 °C 41.9 °F /  5.5 °C 30.08in /  1018.5hPa SE 0.9mph /  1.4km/h 3.0mph /  4.8km/h 68% 0.00in /  0mm 0.0 W/m2
06:05 52.3 °F /  11.3 °C 42.1 °F /  5.6 °C 30.09in /  1018.8hPa Calm   2.0mph /  3.2km/h 68% 0.00in /  0mm 0.0 W/m2
06:12 52.2 °F /  11.2 °C 41.9 °F /  5.5 °C 30.09in /  1018.8hPa Calm   2.0mph /  3.2km/h 68% 0.00in /  0mm 0.0 W/m2
06:18 52.2 °F /  11.2 °C 41.9 °F /  5.5 °C 30.09in /  1018.8hPa Calm   3.0mph /  4.8km/h 68% 0.00in /  0mm 7.0 W/m2
06:24 52.0 °F /  11.1 °C 41.7 °F /  5.4 °C 30.09in /  1018.8hPa Calm   1.0mph /  1.6km/h 68% 0.00in /  0mm 9.0 W/m2
06:30 52.0 °F /  11.1 °C 41.7 °F /  5.4 °C 30.09in /  1018.8hPa Calm   1.0mph /  1.6km/h 68% 0.00in /  0mm 12.0 W/m2
06:36 52.0 °F /  11.1 °C 41.7 °F /  5.4 °C 30.10in /  1019.2hPa NE 2.0mph /  3.2km/h 2.0mph /  3.2km/h 68% 0.00in /  0mm 14.0 W/m2
06:42 52.0 °F /  11.1 °C 41.7 °F /  5.4 °C 30.10in /  1019.2hPa ENE 0.9mph /  1.4km/h 2.0mph /  3.2km/h 68% 0.00in /  0mm 16.0 W/m2
06:48 52.0 °F /  11.1 °C 41.4 °F /  5.2 °C 30.10in /  1019.2hPa Calm   3.0mph /  4.8km/h 67% 0.00in /  0mm 19.0 W/m2
06:54 52.3 °F /  11.3 °C 41.4 °F /  5.2 °C 30.11in /  1019.5hPa NNE 2.0mph /  3.2km/h 4.0mph /  6.4km/h 66% 0.00in /  0mm 21.0 W/m2
07:01 52.9 °F /  11.6 °C 41.4 °F /  5.2 °C 30.11in /  1019.5hPa NE 4.0mph /  6.4km/h 4.0mph /  6.4km/h 65% 0.00in /  0mm 23.0 W/m2
07:07 53.2 °F /  11.8 °C 41.4 °F /  5.2 °C 30.11in /  1019.5hPa East 6.9mph /  11.1km/h 7.0mph /  11.3km/h 64% 0.00in /  0mm 25.0 W/m2
07:13 53.8 °F /  12.1 °C 41.9 °F /  5.5 °C 30.11in /  1019.5hPa NNE 0.9mph /  1.4km/h 4.0mph /  6.4km/h 64% 0.00in /  0mm 26.0 W/m2
07:19 54.1 °F /  12.3 °C 41.9 °F /  5.5 °C 30.11in /  1019.5hPa Calm   4.0mph /  6.4km/h 63% 0.00in /  0mm 28.0 W/m2
07:25 54.7 °F /  12.6 °C 41.9 °F /  5.5 °C 30.11in /  1019.5hPa East 2.9mph /  4.7km/h 6.0mph /  9.7km/h 62% 0.00in /  0mm 30.0 W/m2
07:31 55.2 °F /  12.9 °C 42.1 °F /  5.6 °C 30.11in /  1019.5hPa NNW 0.9mph /  1.4km/h 5.0mph /  8km/h 61% 0.00in /  0mm 32.0 W/m2
07:37 55.8 °F /  13.2 °C 42.1 °F /  5.6 °C 30.11in /  1019.5hPa NE 2.0mph /  3.2km/h 6.0mph /  9.7km/h 60% 0.00in /  0mm 33.0 W/m2
07:44 56.5 °F /  13.6 °C 42.3 °F /  5.7 °C 30.12in /  1019.9hPa Calm   6.0mph /  9.7km/h 59% 0.00in /  0mm 37.0 W/m2
07:50 57.2 °F /  14 °C 43.0 °F /  6.1 °C 30.12in /  1019.9hPa East 4.9mph /  7.9km/h 8.0mph /  12.9km/h 59% 0.00in /  0mm 37.0 W/m2
07:56 57.9 °F /  14.4 °C 43.2 °F /  6.2 °C 30.12in /  1019.9hPa NE 2.0mph /  3.2km/h 4.0mph /  6.4km/h 58% 0.00in /  0mm 40.0 W/m2
08:02 58.6 °F /  14.8 °C 42.4 °F /  5.8 °C 30.12in /  1019.9hPa NNE 4.0mph /  6.4km/h 8.0mph /  12.9km/h 55% 0.00in /  0mm 42.0 W/m2
08:08 59.4 °F /  15.2 °C 42.8 °F /  6 °C 30.12in /  1019.9hPa NNE 6.0mph /  9.7km/h 7.0mph /  11.3km/h 54% 0.00in /  0mm 44.0 W/m2
08:14 60.1 °F /  15.6 °C 43.0 °F /  6.1 °C 30.12in /  1019.9hPa North 4.0mph /  6.4km/h 8.0mph /  12.9km/h 53% 0.00in /  0mm 46.0 W/m2
08:20 60.6 °F /  15.9 °C 43.3 °F /  6.3 °C 30.12in /  1019.9hPa East 4.0mph /  6.4km/h 8.0mph /  12.9km/h 53% 0.00in /  0mm 62.0 W/m2
08:27 61.5 °F /  16.4 °C 43.7 °F /  6.5 °C 30.12in /  1019.9hPa NE 6.0mph /  9.7km/h 10.0mph /  16.1km/h 52% 0.00in /  0mm 446.0 W/m2
08:33 62.4 °F /  16.9 °C 43.5 °F /  6.4 °C 30.12in /  1019.9hPa North 10.1mph /  16.3km/h 11.0mph /  17.7km/h 50% 0.00in /  0mm 466.0 W/m2
08:39 63.3 °F /  17.4 °C 43.9 °F /  6.6 °C 30.12in /  1019.9hPa North 0.9mph /  1.4km/h 7.0mph /  11.3km/h 49% 0.00in /  0mm 485.0 W/m2
08:45 64.0 °F /  17.8 °C 43.9 °F /  6.6 °C 30.12in /  1019.9hPa NE 12.1mph /  19.5km/h 12.1mph /  19.5km/h 48% 0.00in /  0mm 503.0 W/m2
08:51 64.6 °F /  18.1 °C 43.9 °F /  6.6 °C 30.12in /  1019.9hPa NE 4.9mph /  7.9km/h 10.0mph /  16.1km/h 47% 0.00in /  0mm 524.0 W/m2
08:57 64.9 °F /  18.3 °C 44.2 °F /  6.8 °C 30.12in /  1019.9hPa NNE 6.0mph /  9.7km/h 15.0mph /  24.1km/h 47% 0.00in /  0mm 541.0 W/m2
09:03 65.1 °F /  18.4 °C 43.9 °F /  6.6 °C 30.13in /  1020.2hPa Calm   13.0mph /  20.9km/h 46% 0.00in /  0mm 557.0 W/m2
09:09 65.5 °F /  18.6 °C 44.2 °F /  6.8 °C 30.12in /  1019.9hPa NE 6.0mph /  9.7km/h 9.0mph /  14.5km/h 46% 0.00in /  0mm 575.0 W/m2
09:15 65.8 °F /  18.8 °C 44.4 °F /  6.9 °C 30.12in /  1019.9hPa ESE 6.0mph /  9.7km/h 9.0mph /  14.5km/h 46% 0.00in /  0mm 594.0 W/m2
09:21 66.2 °F /  19 °C 44.8 °F /  7.1 °C 30.13in /  1020.2hPa NNE 6.9mph /  11.1km/h 8.0mph /  12.9km/h 46% 0.00in /  0mm 608.0 W/m2
09:27 66.6 °F /  19.2 °C 44.6 °F /  7 °C 30.12in /  1019.9hPa ENE 11.0mph /  17.7km/h 12.0mph /  19.3km/h 45% 0.00in /  0mm 626.0 W/m2
09:33 66.6 °F /  19.2 °C 44.6 °F /  7 °C 30.12in /  1019.9hPa NNE 6.0mph /  9.7km/h 12.0mph /  19.3km/h 45% 0.00in /  0mm 640.0 W/m2
09:39 66.7 °F /  19.3 °C 45.3 °F /  7.4 °C 30.11in /  1019.5hPa NE 6.9mph /  11.1km/h 9.0mph /  14.5km/h 46% 0.00in /  0mm 656.0 W/m2
09:45 67.3 °F /  19.6 °C 45.9 °F /  7.7 °C 30.11in /  1019.5hPa ESE 2.9mph /  4.7km/h 9.0mph /  14.5km/h 46% 0.00in /  0mm 666.0 W/m2
09:51 67.5 °F /  19.7 °C 45.3 °F /  7.4 °C 30.11in /  1019.5hPa North 4.0mph /  6.4km/h 9.0mph /  14.5km/h 45% 0.00in /  0mm 682.0 W/m2
09:57 67.8 °F /  19.9 °C 45.1 °F /  7.3 °C 30.11in /  1019.5hPa ENE 2.9mph /  4.7km/h 7.0mph /  11.3km/h 44% 0.00in /  0mm 694.0 W/m2
10:03 68.4 °F /  20.2 °C 45.7 °F /  7.6 °C 30.11in /  1019.5hPa North 4.9mph /  7.9km/h 7.0mph /  11.3km/h 44% 0.00in /  0mm 703.0 W/m2
10:09 69.1 °F /  20.6 °C 45.7 °F /  7.6 °C 30.10in /  1019.2hPa Calm   6.0mph /  9.7km/h 43% 0.00in /  0mm 712.0 W/m2
10:15 69.3 °F /  20.7 °C 45.9 °F /  7.7 °C 30.10in /  1019.2hPa Calm   5.0mph /  8km/h 43% 0.00in /  0mm 591.0 W/m2
10:21 69.6 °F /  20.9 °C 45.5 °F /  7.5 °C 30.10in /  1019.2hPa NE 4.0mph /  6.4km/h 11.0mph /  17.7km/h 42% 0.00in /  0mm 740.0 W/m2
10:27 70.0 °F /  21.1 °C 46.4 °F /  8 °C 30.09in /  1018.8hPa NNE 2.9mph /  4.7km/h 3.0mph /  4.8km/h 43% 0.00in /  0mm 744.0 W/m2
10:33 70.2 °F /  21.2 °C 46.0 °F /  7.8 °C 30.09in /  1018.8hPa ESE 0.9mph /  1.4km/h 10.0mph /  16.1km/h 42% 0.00in /  0mm 747.0 W/m2
10:39 70.5 °F /  21.4 °C 46.4 °F /  8 °C 30.09in /  1018.8hPa NE 4.9mph /  7.9km/h 10.0mph /  16.1km/h 42% 0.00in /  0mm 758.0 W/m2
10:45 70.5 °F /  21.4 °C 46.4 °F /  8 °C 30.08in /  1018.5hPa NE 2.0mph /  3.2km/h 4.0mph /  6.4km/h 42% 0.00in /  0mm 765.0 W/m2
10:51 70.9 °F /  21.6 °C 46.0 °F /  7.8 °C 30.08in /  1018.5hPa NNE 4.0mph /  6.4km/h 8.0mph /  12.9km/h 41% 0.00in /  0mm 773.0 W/m2
10:57 71.2 °F /  21.8 °C 46.4 °F /  8 °C 30.08in /  1018.5hPa Calm   7.0mph /  11.3km/h 41% 0.00in /  0mm 777.0 W/m2
11:03 71.4 °F /  21.9 °C 46.6 °F /  8.1 °C 30.07in /  1018.2hPa NE 0.9mph /  1.4km/h 7.0mph /  11.3km/h 41% 0.00in /  0mm 786.0 W/m2
11:09 71.8 °F /  22.1 °C 46.2 °F /  7.9 °C 30.07in /  1018.2hPa WNW 2.0mph /  3.2km/h 7.0mph /  11.3km/h 40% 0.00in /  0mm 791.0 W/m2
11:15 72.0 °F /  22.2 °C 46.9 °F /  8.3 °C 30.06in /  1017.8hPa NNW 4.9mph /  7.9km/h 5.0mph /  8km/h 41% 0.00in /  0mm 788.0 W/m2
11:21 72.1 °F /  22.3 °C 46.4 °F /  8 °C 30.06in /  1017.8hPa Calm   8.0mph /  12.9km/h 40% 0.00in /  0mm 786.0 W/m2
11:27 72.7 °F /  22.6 °C 46.2 °F /  7.9 °C 30.06in /  1017.8hPa NNW 6.9mph /  11.1km/h 11.0mph /  17.7km/h 39% 0.00in /  0mm 795.0 W/m2
11:33 72.5 °F /  22.5 °C 46.8 °F /  8.2 °C 30.06in /  1017.8hPa NNW 8.1mph /  13km/h 9.0mph /  14.5km/h 40% 0.00in /  0mm 798.0 W/m2
11:39 72.7 °F /  22.6 °C 46.9 °F /  8.3 °C 30.05in /  1017.5hPa NNW 2.9mph /  4.7km/h 9.0mph /  14.5km/h 40% 0.00in /  0mm 798.0 W/m2
11:45 72.7 °F /  22.6 °C 46.9 °F /  8.3 °C 30.05in /  1017.5hPa NNW 2.9mph /  4.7km/h 8.0mph /  12.9km/h 40% 0.00in /  0mm 796.0 W/m2
11:51 72.7 °F /  22.6 °C 46.9 °F /  8.3 °C 30.05in /  1017.5hPa NW 2.9mph /  4.7km/h 9.0mph /  14.5km/h 40% 0.00in /  0mm 798.0 W/m2
11:57 72.9 °F /  22.7 °C 47.1 °F /  8.4 °C 30.05in /  1017.5hPa North 6.0mph /  9.7km/h 7.0mph /  11.3km/h 40% 0.00in /  0mm 795.0 W/m2
12:03 72.9 °F /  22.7 °C 47.1 °F /  8.4 °C 30.04in /  1017.2hPa NNE 2.9mph /  4.7km/h 7.0mph /  11.3km/h 40% 0.00in /  0mm 791.0 W/m2
12:09 73.0 °F /  22.8 °C 47.3 °F /  8.5 °C 30.04in /  1017.2hPa North 6.0mph /  9.7km/h 7.0mph /  11.3km/h 40% 0.00in /  0mm 789.0 W/m2
12:15 73.2 °F /  22.9 °C 47.5 °F /  8.6 °C 30.03in /  1016.8hPa NE 2.0mph /  3.2km/h 7.0mph /  11.3km/h 40% 0.00in /  0mm 779.0 W/m2
12:21 73.2 °F /  22.9 °C 47.5 °F /  8.6 °C 30.03in /  1016.8hPa ENE 4.0mph /  6.4km/h 7.0mph /  11.3km/h 40% 0.00in /  0mm 782.0 W/m2
12:27 73.6 °F /  23.1 °C 47.8 °F /  8.8 °C 30.03in /  1016.8hPa NNW 2.0mph /  3.2km/h 8.0mph /  12.9km/h 40% 0.00in /  0mm 770.0 W/m2
12:33 73.8 °F /  23.2 °C 47.3 °F /  8.5 °C 30.03in /  1016.8hPa NNW 6.9mph /  11.1km/h 7.0mph /  11.3km/h 39% 0.00in /  0mm 777.0 W/m2
12:39 73.9 °F /  23.3 °C 47.5 °F /  8.6 °C 30.02in /  1016.5hPa North 0.9mph /  1.4km/h 5.0mph /  8km/h 39% 0.00in /  0mm 765.0 W/m2
12:45 73.9 °F /  23.3 °C 47.5 °F /  8.6 °C 30.02in /  1016.5hPa NE 6.0mph /  9.7km/h 8.0mph /  12.9km/h 39% 0.00in /  0mm 758.0 W/m2
12:51 74.1 °F /  23.4 °C 47.7 °F /  8.7 °C 30.01in /  1016.1hPa ESE 2.9mph /  4.7km/h 8.0mph /  12.9km/h 39% 0.00in /  0mm 754.0 W/m2
12:57 74.1 °F /  23.4 °C 46.9 °F /  8.3 °C 30.01in /  1016.1hPa NE 2.0mph /  3.2km/h 6.0mph /  9.7km/h 38% 0.00in /  0mm 745.0 W/m2
13:03 74.3 °F /  23.5 °C 47.1 °F /  8.4 °C 30.01in /  1016.1hPa WNW 2.0mph /  3.2km/h 10.0mph /  16.1km/h 38% 0.00in /  0mm 738.0 W/m2
13:09 74.7 °F /  23.7 °C 47.3 °F /  8.5 °C 30.01in /  1016.1hPa ENE 2.9mph /  4.7km/h 5.0mph /  8km/h 38% 0.00in /  0mm 728.0 W/m2
13:15 74.7 °F /  23.7 °C 47.3 °F /  8.5 °C 30.01in /  1016.1hPa NNE 4.9mph /  7.9km/h 9.0mph /  14.5km/h 38% 0.00in /  0mm 719.0 W/m2
13:21 74.7 °F /  23.7 °C 47.3 °F /  8.5 °C 30.00in /  1015.8hPa NW 0.9mph /  1.4km/h 8.0mph /  12.9km/h 38% 0.00in /  0mm 703.0 W/m2
13:27 74.7 °F /  23.7 °C 46.6 °F /  8.1 °C 30.00in /  1015.8hPa North 4.0mph /  6.4km/h 10.0mph /  16.1km/h 37% 0.00in /  0mm 694.0 W/m2
13:33 74.7 °F /  23.7 °C 48.0 °F /  8.9 °C 30.00in /  1015.8hPa ENE 2.9mph /  4.7km/h 5.0mph /  8km/h 39% 0.00in /  0mm 677.0 W/m2
13:39 75.0 °F /  23.9 °C 47.7 °F /  8.7 °C 30.00in /  1015.8hPa North 2.9mph /  4.7km/h 10.0mph /  16.1km/h 38% 0.00in /  0mm 649.0 W/m2
13:45 74.8 °F /  23.8 °C 46.8 °F /  8.2 °C 29.99in /  1015.5hPa NNE 2.9mph /  4.7km/h 3.0mph /  4.8km/h 37% 0.00in /  0mm 661.0 W/m2
13:51 75.0 °F /  23.9 °C 47.7 °F /  8.7 °C 29.99in /  1015.5hPa ENE 4.9mph /  7.9km/h 9.0mph /  14.5km/h 38% 0.00in /  0mm 652.0 W/m2
13:57 75.0 °F /  23.9 °C 46.9 °F /  8.3 °C 29.99in /  1015.5hPa ENE 2.0mph /  3.2km/h 5.0mph /  8km/h 37% 0.00in /  0mm 633.0 W/m2
14:03 75.0 °F /  23.9 °C 46.9 °F /  8.3 °C 29.99in /  1015.5hPa NNE 2.0mph /  3.2km/h 8.0mph /  12.9km/h 37% 0.00in /  0mm 621.0 W/m2
14:09 75.0 °F /  23.9 °C 48.4 °F /  9.1 °C 29.98in /  1015.1hPa ENE 2.0mph /  3.2km/h 7.0mph /  11.3km/h 39% 0.00in /  0mm 603.0 W/m2
14:15 75.2 °F /  24 °C 47.8 °F /  8.8 °C 29.98in /  1015.1hPa ESE 2.9mph /  4.7km/h 6.0mph /  9.7km/h 38% 0.00in /  0mm 589.0 W/m2
14:21 75.2 °F /  24 °C 47.8 °F /  8.8 °C 29.98in /  1015.1hPa NNW 6.0mph /  9.7km/h 10.0mph /  16.1km/h 38% 0.00in /  0mm 573.0 W/m2
14:27 75.0 °F /  23.9 °C 47.7 °F /  8.7 °C 29.98in /  1015.1hPa East 0.9mph /  1.4km/h 7.0mph /  11.3km/h 38% 0.00in /  0mm 561.0 W/m2
14:33 74.8 °F /  23.8 °C 46.8 °F /  8.2 °C 29.98in /  1015.1hPa NNW 6.0mph /  9.7km/h 9.0mph /  14.5km/h 37% 0.00in /  0mm 543.0 W/m2
14:39 75.0 °F /  23.9 °C 46.9 °F /  8.3 °C 29.98in /  1015.1hPa North 0.9mph /  1.4km/h 5.0mph /  8km/h 37% 0.00in /  0mm 526.0 W/m2
14:45 75.0 °F /  23.9 °C 46.9 °F /  8.3 °C 29.98in /  1015.1hPa NNW 0.9mph /  1.4km/h 5.0mph /  8km/h 37% 0.00in /  0mm 506.0 W/m2
14:51 75.4 °F /  24.1 °C 48.0 °F /  8.9 °C 29.98in /  1015.1hPa NNW 2.9mph /  4.7km/h 7.0mph /  11.3km/h 38% 0.00in /  0mm 487.0 W/m2
14:57 75.4 °F /  24.1 °C 47.3 °F /  8.5 °C 29.98in /  1015.1hPa Calm   5.0mph /  8km/h 37% 0.00in /  0mm 473.0 W/m2
14:59 75.6 °F /  24.2 °C 47.5 °F /  8.6 °C 29.98in /  1015.1hPa NNE 2.0mph /  3.2km/h 4.0mph /  6.4km/h 37% 0.00in /  0mm 468.0 W/m2
15:06 75.6 °F /  24.2 °C 47.5 °F /  8.6 °C 29.98in /  1015.1hPa Calm   7.0mph /  11.3km/h 37% 0.00in /  0mm 454.0 W/m2
15:12 75.4 °F /  24.1 °C 47.3 °F /  8.5 °C 29.98in /  1015.1hPa NE 2.0mph /  3.2km/h 6.0mph /  9.7km/h 37% 0.00in /  0mm 427.0 W/m2
15:18 75.0 °F /  23.9 °C 46.9 °F /  8.3 °C 29.98in /  1015.1hPa NNE 2.0mph /  3.2km/h 11.0mph /  17.7km/h 37% 0.00in /  0mm 403.0 W/m2
15:24 74.7 °F /  23.7 °C 46.6 °F /  8.1 °C 29.98in /  1015.1hPa NNE 2.9mph /  4.7km/h 6.0mph /  9.7km/h 37% 0.00in /  0mm 381.0 W/m2
15:30 74.7 °F /  23.7 °C 47.3 °F /  8.5 °C 29.98in /  1015.1hPa ENE 2.0mph /  3.2km/h 9.0mph /  14.5km/h 38% 0.00in /  0mm 362.0 W/m2
15:36 74.5 °F /  23.6 °C 47.1 °F /  8.4 °C 29.98in /  1015.1hPa NE 2.0mph /  3.2km/h 9.0mph /  14.5km/h 38% 0.00in /  0mm 341.0 W/m2
15:42 74.5 °F /  23.6 °C 47.1 °F /  8.4 °C 29.98in /  1015.1hPa ESE 0.9mph /  1.4km/h 5.0mph /  8km/h 38% 0.00in /  0mm 322.0 W/m2
15:48 74.1 °F /  23.4 °C 46.9 °F /  8.3 °C 29.98in /  1015.1hPa North 4.0mph /  6.4km/h 6.0mph /  9.7km/h 38% 0.00in /  0mm 123.0 W/m2
15:54 74.1 °F /  23.4 °C 47.7 °F /  8.7 °C 29.98in /  1015.1hPa Calm   8.0mph /  12.9km/h 39% 0.00in /  0mm 54.0 W/m2
16:00 73.8 °F /  23.2 °C 47.3 °F /  8.5 °C 29.98in /  1015.1hPa Calm   3.0mph /  4.8km/h 39% 0.00in /  0mm 53.0 W/m2
16:06 73.6 °F /  23.1 °C 47.8 °F /  8.8 °C 29.98in /  1015.1hPa NNW 0.9mph /  1.4km/h 2.0mph /  3.2km/h 40% 0.00in /  0mm 49.0 W/m2
16:12 73.2 °F /  22.9 °C 46.8 °F /  8.2 °C 29.98in /  1015.1hPa Calm   6.0mph /  9.7km/h 39% 0.00in /  0mm 44.0 W/m2
16:18 72.9 °F /  22.7 °C 47.8 °F /  8.8 °C 29.98in /  1015.1hPa Calm   6.0mph /  9.7km/h 41% 0.00in /  0mm 40.0 W/m2
16:24 72.3 °F /  22.4 °C 47.3 °F /  8.5 °C 29.98in /  1015.1hPa ENE 2.9mph /  4.7km/h 7.0mph /  11.3km/h 41% 0.00in /  0mm 40.0 W/m2
16:30 72.1 °F /  22.3 °C 47.8 °F /  8.8 °C 29.99in /  1015.5hPa NE 4.9mph /  7.9km/h 7.0mph /  11.3km/h 42% 0.00in /  0mm 46.0 W/m2
16:36 71.8 °F /  22.1 °C 47.5 °F /  8.6 °C 29.99in /  1015.5hPa NNE 6.0mph /  9.7km/h 6.0mph /  9.7km/h 42% 0.00in /  0mm 42.0 W/m2
16:42 71.6 °F /  22 °C 47.3 °F /  8.5 °C 29.99in /  1015.5hPa NNE 0.9mph /  1.4km/h 4.0mph /  6.4km/h 42% 0.00in /  0mm 37.0 W/m2
16:48 71.4 °F /  21.9 °C 47.1 °F /  8.4 °C 29.99in /  1015.5hPa Calm   3.0mph /  4.8km/h 42% 0.00in /  0mm 39.0 W/m2
16:54 71.2 °F /  21.8 °C 47.7 °F /  8.7 °C 29.99in /  1015.5hPa NNE 2.0mph /  3.2km/h 5.0mph /  8km/h 43% 0.00in /  0mm 39.0 W/m2
17:00 71.1 °F /  21.7 °C 47.5 °F /  8.6 °C 30.00in /  1015.8hPa East 0.9mph /  1.4km/h 7.0mph /  11.3km/h 43% 0.00in /  0mm 35.0 W/m2
17:06 70.7 °F /  21.5 °C 47.1 °F /  8.4 °C 30.00in /  1015.8hPa Calm   3.0mph /  4.8km/h 43% 0.00in /  0mm 28.0 W/m2
17:12 70.5 °F /  21.4 °C 47.5 °F /  8.6 °C 30.00in /  1015.8hPa East 0.9mph /  1.4km/h 5.0mph /  8km/h 44% 0.00in /  0mm 19.0 W/m2
17:19 70.3 °F /  21.3 °C 47.5 °F /  8.6 °C 30.01in /  1016.1hPa Calm   3.0mph /  4.8km/h 44% 0.00in /  0mm 12.0 W/m2
17:25 70.0 °F /  21.1 °C 47.7 °F /  8.7 °C 30.01in /  1016.1hPa Calm   3.0mph /  4.8km/h 45% 0.00in /  0mm 7.0 W/m2
17:31 69.8 °F /  21 °C 47.5 °F /  8.6 °C 30.01in /  1016.1hPa ENE 0.9mph /  1.4km/h 2.0mph /  3.2km/h 45% 0.00in /  0mm 0.0 W/m2
17:37 69.4 °F /  20.8 °C 47.8 °F /  8.8 °C 30.01in /  1016.1hPa Calm   1.0mph /  1.6km/h 46% 0.00in /  0mm 0.0 W/m2
17:43 69.3 °F /  20.7 °C 48.2 °F /  9 °C 30.01in /  1016.1hPa NE 0.9mph /  1.4km/h 3.0mph /  4.8km/h 47% 0.00in /  0mm 0.0 W/m2
17:49 69.1 °F /  20.6 °C 48.0 °F /  8.9 °C 30.02in /  1016.5hPa NE 0.9mph /  1.4km/h 1.0mph /  1.6km/h 47% 0.00in /  0mm 0.0 W/m2
17:55 68.7 °F /  20.4 °C 48.2 °F /  9 °C 30.02in /  1016.5hPa Calm     48% 0.00in /  0mm 0.0 W/m2
18:01 68.4 °F /  20.2 °C 48.4 °F /  9.1 °C 30.02in /  1016.5hPa Calm     49% 0.00in /  0mm 0.0 W/m2
18:07 68.2 °F /  20.1 °C 48.9 °F /  9.4 °C 30.02in /  1016.5hPa Calm     50% 0.00in /  0mm 0.0 W/m2
18:13 67.8 °F /  19.9 °C 49.1 °F /  9.5 °C 30.02in /  1016.5hPa Calm   2.0mph /  3.2km/h 51% 0.00in /  0mm 0.0 W/m2
18:19 67.5 °F /  19.7 °C 49.3 °F /  9.6 °C 30.02in /  1016.5hPa Calm   1.0mph /  1.6km/h 52% 0.00in /  0mm 0.0 W/m2
18:25 67.1 °F /  19.5 °C 48.9 °F /  9.4 °C 30.03in /  1016.8hPa ENE 0.9mph /  1.4km/h 3.0mph /  4.8km/h 52% 0.00in /  0mm 0.0 W/m2
18:31 66.7 °F /  19.3 °C 49.1 °F /  9.5 °C 30.03in /  1016.8hPa Calm   1.0mph /  1.6km/h 53% 0.00in /  0mm 0.0 W/m2
18:37 66.4 °F /  19.1 °C 49.3 °F /  9.6 °C 30.03in /  1016.8hPa Calm   1.0mph /  1.6km/h 54% 0.00in /  0mm 0.0 W/m2
18:44 65.8 °F /  18.8 °C 48.7 °F /  9.3 °C 30.03in /  1016.8hPa Calm   1.0mph /  1.6km/h 54% 0.00in /  0mm 0.0 W/m2
18:50 65.5 °F /  18.6 °C 48.9 °F /  9.4 °C 30.03in /  1016.8hPa Calm   1.0mph /  1.6km/h 55% 0.00in /  0mm 0.0 W/m2
18:56 65.1 °F /  18.4 °C 48.6 °F /  9.2 °C 30.03in /  1016.8hPa Calm   1.0mph /  1.6km/h 55% 0.00in /  0mm 0.0 W/m2
19:02 64.9 °F /  18.3 °C 48.9 °F /  9.4 °C 30.03in /  1016.8hPa Calm   1.0mph /  1.6km/h 56% 0.00in /  0mm 0.0 W/m2
19:08 64.6 °F /  18.1 °C 48.9 °F /  9.4 °C 30.03in /  1016.8hPa Calm   1.0mph /  1.6km/h 57% 0.00in /  0mm 0.0 W/m2
19:14 64.0 °F /  17.8 °C 48.6 °F /  9.2 °C 30.03in /  1016.8hPa NE 0.9mph /  1.4km/h 2.0mph /  3.2km/h 57% 0.00in /  0mm 0.0 W/m2
19:20 63.7 °F /  17.6 °C 48.2 °F /  9 °C 30.03in /  1016.8hPa ENE 2.0mph /  3.2km/h 3.0mph /  4.8km/h 57% 0.00in /  0mm 0.0 W/m2
19:26 63.1 °F /  17.3 °C 48.2 °F /  9 °C 30.03in /  1016.8hPa Calm   2.0mph /  3.2km/h 58% 0.00in /  0mm 0.0 W/m2
19:32 62.8 °F /  17.1 °C 48.2 °F /  9 °C 30.03in /  1016.8hPa NE 0.9mph /  1.4km/h 2.0mph /  3.2km/h 59% 0.00in /  0mm 0.0 W/m2
19:39 62.4 °F /  16.9 °C 47.8 °F /  8.8 °C 30.03in /  1016.8hPa Calm   1.0mph /  1.6km/h 59% 0.00in /  0mm 0.0 W/m2
19:45 62.2 °F /  16.8 °C 48.2 °F /  9 °C 30.04in /  1017.2hPa Calm   2.0mph /  3.2km/h 60% 0.00in /  0mm 0.0 W/m2
19:51 61.9 °F /  16.6 °C 48.2 °F /  9 °C 30.04in /  1017.2hPa Calm   1.0mph /  1.6km/h 61% 0.00in /  0mm 0.0 W/m2
19:57 61.5 °F /  16.4 °C 48.4 °F /  9.1 °C 30.05in /  1017.5hPa Calm   1.0mph /  1.6km/h 62% 0.00in /  0mm 0.0 W/m2
20:03 61.2 °F /  16.2 °C 48.0 °F /  8.9 °C 30.05in /  1017.5hPa NE 0.9mph /  1.4km/h 1.0mph /  1.6km/h 62% 0.00in /  0mm 0.0 W/m2
20:09 60.8 °F /  16 °C 48.2 °F /  9 °C 30.05in /  1017.5hPa Calm   1.0mph /  1.6km/h 63% 0.00in /  0mm 0.0 W/m2
20:15 60.4 °F /  15.8 °C 48.2 °F /  9 °C 30.05in /  1017.5hPa Calm   1.0mph /  1.6km/h 64% 0.00in /  0mm 0.0 W/m2
20:21 60.1 °F /  15.6 °C 47.8 °F /  8.8 °C 30.06in /  1017.8hPa Calm   2.0mph /  3.2km/h 64% 0.00in /  0mm 0.0 W/m2
20:27 59.9 °F /  15.5 °C 47.7 °F /  8.7 °C 30.06in /  1017.8hPa Calm   1.0mph /  1.6km/h 64% 0.00in /  0mm 0.0 W/m2
20:33 59.7 °F /  15.4 °C 48.0 °F /  8.9 °C 30.06in /  1017.8hPa Calm     65% 0.00in /  0mm 0.0 W/m2
20:39 59.4 °F /  15.2 °C 47.7 °F /  8.7 °C 30.06in /  1017.8hPa Calm   2.0mph /  3.2km/h 65% 0.00in /  0mm 0.0 W/m2
20:45 59.4 °F /  15.2 °C 47.7 °F /  8.7 °C 30.06in /  1017.8hPa Calm   3.0mph /  4.8km/h 65% 0.00in /  0mm 0.0 W/m2
20:51 59.2 °F /  15.1 °C 47.5 °F /  8.6 °C 30.06in /  1017.8hPa East 0.9mph /  1.4km/h 1.0mph /  1.6km/h 65% 0.00in /  0mm 0.0 W/m2
20:57 58.8 °F /  14.9 °C 47.5 °F /  8.6 °C 30.06in /  1017.8hPa Calm   1.0mph /  1.6km/h 66% 0.00in /  0mm 0.0 W/m2
21:04 58.6 °F /  14.8 °C 47.3 °F /  8.5 °C 30.06in /  1017.8hPa Calm   2.0mph /  3.2km/h 66% 0.00in /  0mm 0.0 W/m2
21:10 58.5 °F /  14.7 °C 47.1 °F /  8.4 °C 30.06in /  1017.8hPa NE 0.9mph /  1.4km/h 2.0mph /  3.2km/h 66% 0.00in /  0mm 0.0 W/m2
21:16 58.5 °F /  14.7 °C 47.1 °F /  8.4 °C 30.06in /  1017.8hPa Calm   1.0mph /  1.6km/h 66% 0.00in /  0mm 0.0 W/m2
21:22 58.3 °F /  14.6 °C 46.9 °F /  8.3 °C 30.06in /  1017.8hPa Calm   1.0mph /  1.6km/h 66% 0.00in /  0mm 0.0 W/m2
21:28 58.3 °F /  14.6 °C 47.3 °F /  8.5 °C 30.06in /  1017.8hPa Calm   1.0mph /  1.6km/h 67% 0.00in /  0mm 0.0 W/m2
21:34 57.9 °F /  14.4 °C 46.9 °F /  8.3 °C 30.06in /  1017.8hPa Calm   1.0mph /  1.6km/h 67% 0.00in /  0mm 0.0 W/m2
21:40 57.7 °F /  14.3 °C 47.3 °F /  8.5 °C 30.06in /  1017.8hPa Calm     68% 0.00in /  0mm 0.0 W/m2
21:46 57.4 °F /  14.1 °C 46.9 °F /  8.3 °C 30.06in /  1017.8hPa Calm     68% 0.00in /  0mm 0.0 W/m2
21:52 57.2 °F /  14 °C 47.1 °F /  8.4 °C 30.06in /  1017.8hPa Calm     69% 0.00in /  0mm 0.0 W/m2
21:58 56.8 °F /  13.8 °C 46.8 °F /  8.2 °C 30.06in /  1017.8hPa Calm     69% 0.00in /  0mm 0.0 W/m2
22:04 56.7 °F /  13.7 °C 46.9 °F /  8.3 °C 30.07in /  1018.2hPa Calm     70% 0.00in /  0mm 0.0 W/m2
22:10 56.5 °F /  13.6 °C 46.8 °F /  8.2 °C 30.07in /  1018.2hPa Calm   1.0mph /  1.6km/h 70% 0.00in /  0mm 0.0 W/m2
22:16 56.1 °F /  13.4 °C 46.4 °F /  8 °C 30.06in /  1017.8hPa Calm     70% 0.00in /  0mm 0.0 W/m2
22:23 55.9 °F /  13.3 °C 46.2 °F /  7.9 °C 30.07in /  1018.2hPa Calm   1.0mph /  1.6km/h 70% 0.00in /  0mm 0.0 W/m2
22:29 55.8 °F /  13.2 °C 46.6 °F /  8.1 °C 30.07in /  1018.2hPa Calm   1.0mph /  1.6km/h 71% 0.00in /  0mm 0.0 W/m2
22:35 55.6 °F /  13.1 °C 46.4 °F /  8 °C 30.07in /  1018.2hPa Calm     71% 0.00in /  0mm 0.0 W/m2
22:41 55.4 °F /  13 °C 46.2 °F /  7.9 °C 30.07in /  1018.2hPa Calm     71% 0.00in /  0mm 0.0 W/m2
22:47 55.2 °F /  12.9 °C 46.0 °F /  7.8 °C 30.07in /  1018.2hPa Calm     71% 0.00in /  0mm 0.0 W/m2
22:53 55.0 °F /  12.8 °C 46.2 °F /  7.9 °C 30.07in /  1018.2hPa Calm     72% 0.00in /  0mm 0.0 W/m2
22:59 54.9 °F /  12.7 °C 45.7 °F /  7.6 °C 30.07in /  1018.2hPa Calm     71% 0.00in /  0mm 0.0 W/m2
23:05 54.7 °F /  12.6 °C 45.9 °F /  7.7 °C 30.07in /  1018.2hPa Calm     72% 0.00in /  0mm 0.0 W/m2
23:12 54.7 °F /  12.6 °C 45.9 °F /  7.7 °C 30.07in /  1018.2hPa Calm     72% 0.00in /  0mm 0.0 W/m2
23:18 54.3 °F /  12.4 °C 45.5 °F /  7.5 °C 30.07in /  1018.2hPa Calm     72% 0.00in /  0mm 0.0 W/m2
23:24 54.3 °F /  12.4 °C 45.5 °F /  7.5 °C 30.07in /  1018.2hPa Calm     72% 0.00in /  0mm 0.0 W/m2
23:30 54.1 °F /  12.3 °C 45.7 °F /  7.6 °C 30.07in /  1018.2hPa Calm     73% 0.00in /  0mm 0.0 W/m2
23:36 54.0 °F /  12.2 °C 45.5 °F /  7.5 °C 30.07in /  1018.2hPa Calm     73% 0.00in /  0mm 0.0 W/m2
23:42 53.8 °F /  12.1 °C 45.3 °F /  7.4 °C 30.07in /  1018.2hPa Calm     73% 0.00in /  0mm 0.0 W/m2
23:48 53.4 °F /  11.9 °C 45.0 °F /  7.2 °C 30.07in /  1018.2hPa Calm     73% 0.00in /  0mm 0.0 W/m2
23:54 53.2 °F /  11.8 °C 44.8 °F /  7.1 °C 30.07in /  1018.2hPa Calm     73% 0.00in /  0mm 0.0 W/m2
Olympia, Windhoek, Namibia
Compliments of Weather Underground - 3 mb